الصفحة الرئيسية
METAR-TAF:

METAR-TAF

مطار :

برازيليا, برازيليا, البرازيل

دائرة عرض: 15-52S, خط طول: 047-56W, ارتفاع: 1061 متر

مراقبة الطقس الحالي

تاريخ ووقت الإصدار 26 دقيقة قبل الساعة 04:00UTC
ريح 3 عقدة من الجنوب
درجة الحرارة 18°درجة مئوية
الرطوبة 88%
ضغط 1018 hPa
الرؤية 10 كم أو أكثر
الغيوم لا تقل 1500 م ولا وجود لمزنة ركامية السحاب الأسود

METAR: SBBR 240400Z 19003KT CAVOK 18/16 Q1018

زمن: 01:26 (04:26 UTC)

توقعات

تاريخ ووقت الإصدار 6ساعات و 26 دقيقة قبل الساعة 22:00UTC
التوقعات صالحة من24 الساعة 00 UTC إلى 24 الساعة 24 UTC
ريح عقدة من الشمال
الرؤية 10 كم أو أكثر
الغيوم لا تقل 1500 م ولا وجود لمزنة ركامية السحاب الأسود
أصبح
من 24 الساعة 09 UTC إلى 24 الساعة 11 UTC
ريح 5 عقدة من الجنوب الشرقي
أصبح
من 24 الساعة 19 UTC إلى 24 الساعة 21 UTC
ريح 6 عقدة من الجنوب/الجنوب الشرقي

TAF: SBBR 232200Z 2400/2424 00000KT CAVOK TN15/2408Z TX30/2418Z BECMG 2409/2411 13005KT BECMG 2419/2421 16006KT RMK PEW

أرصاد الطقس والتوقعات من أكثر من 4000 مطار (تقارير الطقس للمطار METAR والتنبؤ بالطقس بالمطارTAF).

المحطات المتاحة هي النقط الصفراء والحمراء على الخريطة.

حرك المؤشر فوق النقطة لمعرفة اسم المحطة.

ثم انقر لمعرفة أرصاد وتوقعات الطقس.

لتغيير الخارطة: اضغط على الأزرار الخضراء مع رمز الصليب الأسود للتكبير. على الزر الأخضر مع شرطة للتصغير، أو على الأسهم الخضراء للخرائط المجاورة.


METAR-TAF: